createdAt,value
2023-05-18T00:07:39.178Z,16.36
2023-05-18T00:10:11.627Z,16.37
2023-05-18T00:12:42.373Z,16.30
2023-05-18T00:15:13.119Z,16.27
2023-05-18T00:17:43.797Z,16.25
2023-05-18T00:20:15.041Z,16.21
2023-05-18T00:22:48.160Z,16.17
2023-05-18T00:25:18.963Z,16.11
2023-05-18T00:27:49.890Z,16.06
2023-05-18T00:30:20.402Z,16.02
2023-05-18T00:32:50.553Z,15.97
2023-05-18T00:35:21.630Z,15.88
2023-05-18T00:37:52.201Z,15.84
2023-05-18T00:40:23.360Z,15.82
2023-05-18T00:42:54.120Z,15.79
2023-05-18T00:45:24.380Z,15.79
2023-05-18T00:47:54.844Z,15.81
2023-05-18T00:50:25.035Z,15.80
2023-05-18T00:52:55.352Z,15.79
2023-05-18T00:55:27.715Z,15.80
2023-05-18T00:57:58.832Z,15.81
2023-05-18T01:00:29.790Z,15.84
2023-05-18T01:03:00.549Z,15.87
2023-05-18T01:05:31.669Z,15.90
2023-05-18T01:08:03.117Z,15.92
2023-05-18T01:10:36.111Z,15.92
2023-05-18T01:13:10.805Z,15.92
2023-05-18T01:15:42.264Z,15.94
2023-05-18T01:18:16.178Z,15.92
2023-05-18T01:20:49.645Z,15.85
2023-05-18T01:23:52.086Z,15.80
2023-05-18T01:26:29.470Z,15.75
2023-05-18T01:29:01.451Z,15.73
2023-05-18T01:31:31.879Z,15.70
2023-05-18T01:34:02.157Z,15.69
2023-05-18T01:36:32.335Z,15.70
2023-05-18T01:39:03.627Z,15.71
2023-05-18T01:41:38.934Z,15.72
2023-05-18T01:44:12.926Z,15.72
2023-05-18T01:46:50.037Z,15.70
2023-05-18T01:49:24.460Z,15.71
2023-05-18T01:51:56.570Z,15.71
2023-05-18T01:54:27.388Z,15.68
2023-05-18T01:56:57.706Z,15.67
2023-05-18T02:05:20.707Z,15.75
2023-05-18T02:07:51.288Z,15.72
2023-05-18T02:10:21.919Z,15.71
2023-05-18T02:12:54.033Z,15.73
2023-05-18T02:15:24.855Z,15.74
2023-05-18T02:17:57.875Z,15.77
2023-05-18T02:20:32.496Z,15.79
2023-05-18T02:23:02.586Z,15.82
2023-05-18T02:25:32.993Z,15.86
2023-05-18T02:28:03.862Z,15.88
2023-05-18T02:30:34.266Z,15.90
2023-05-18T02:33:04.825Z,15.87
2023-05-18T02:35:34.957Z,15.86
2023-05-18T02:38:05.659Z,15.90
2023-05-18T02:40:36.056Z,15.92
2023-05-18T02:43:07.392Z,15.92
2023-05-18T02:45:37.884Z,15.92
2023-05-18T02:48:09.090Z,15.94
2023-05-18T02:50:39.715Z,15.98
2023-05-18T02:53:11.158Z,15.99
2023-05-18T02:55:43.435Z,15.97
2023-05-18T02:58:14.086Z,15.99
2023-05-18T03:00:44.549Z,16.00
2023-05-18T03:03:15.925Z,16.03
2023-05-18T03:05:46.396Z,16.06
2023-05-18T03:08:18.003Z,16.09
2023-05-18T03:10:48.464Z,16.11
2023-05-18T03:13:18.845Z,16.12
2023-05-18T03:15:50.720Z,16.12
2023-05-18T03:18:21.808Z,16.14
2023-05-18T03:20:52.438Z,16.17
2023-05-18T03:23:22.653Z,16.22
2023-05-18T03:25:54.084Z,16.24
2023-05-18T03:28:24.529Z,16.25
2023-05-18T03:30:55.133Z,16.24
2023-05-18T03:33:26.270Z,16.24
2023-05-18T03:35:56.695Z,16.25
2023-05-18T03:38:27.020Z,16.25
2023-05-18T03:40:57.371Z,16.29
2023-05-18T03:43:29.353Z,16.35
2023-05-18T03:45:59.778Z,16.43
2023-05-18T03:48:30.908Z,16.49
2023-05-18T03:51:01.335Z,16.53
2023-05-18T03:53:33.613Z,16.58
2023-05-18T03:56:04.315Z,16.61
2023-05-18T03:58:34.795Z,16.60
2023-05-18T04:01:06.234Z,16.58
2023-05-18T04:03:36.728Z,16.59
2023-05-18T04:06:10.098Z,16.65
2023-05-18T04:08:40.285Z,16.73
2023-05-18T04:11:10.900Z,16.81
2023-05-18T04:13:41.674Z,16.88
2023-05-18T04:16:13.348Z,16.92
2023-05-18T04:18:44.134Z,16.94
2023-05-18T04:21:15.777Z,16.98
2023-05-18T04:23:47.097Z,17.05
2023-05-18T04:26:19.670Z,17.14
2023-05-18T04:28:50.101Z,17.24
2023-05-18T04:31:20.434Z,17.36
2023-05-18T04:33:51.063Z,17.49
2023-05-18T04:36:25.392Z,17.61
2023-05-18T04:38:58.358Z,17.75
2023-05-18T04:41:28.722Z,17.84
2023-05-18T04:44:00.760Z,17.86
2023-05-18T04:46:32.257Z,17.92
2023-05-18T04:49:02.724Z,17.99
2023-05-18T04:51:34.596Z,18.14
2023-05-18T04:54:06.047Z,18.33
2023-05-18T04:56:36.435Z,18.51
2023-05-18T04:59:07.269Z,18.65
2023-05-18T05:01:37.993Z,18.77
2023-05-18T05:04:08.416Z,18.89
2023-05-18T05:06:38.809Z,19.08
2023-05-18T05:09:09.042Z,19.26
2023-05-18T05:11:39.898Z,19.45
2023-05-18T05:14:10.317Z,19.70
2023-05-18T05:16:40.929Z,19.86
2023-05-18T05:31:46.718Z,21.21
2023-05-18T05:34:20.585Z,21.60
2023-05-18T05:36:54.892Z,21.66
2023-05-18T05:39:28.695Z,21.86
2023-05-18T05:42:03.477Z,22.29
2023-05-18T05:44:38.058Z,22.83
2023-05-18T05:47:12.711Z,23.26
2023-05-18T05:49:46.888Z,23.67
2023-05-18T05:52:20.832Z,24.23
2023-05-18T05:54:54.656Z,25.20
2023-05-18T05:57:28.980Z,26.82
2023-05-18T06:00:04.753Z,28.82
2023-05-18T06:02:39.693Z,31.05
2023-05-18T06:05:13.916Z,33.16
2023-05-18T06:07:48.667Z,35.00
2023-05-18T06:10:23.940Z,35.56
2023-05-18T06:12:56.226Z,35.03
2023-05-18T06:15:30.277Z,34.35
2023-05-18T06:18:05.278Z,33.51
2023-05-18T06:20:39.187Z,32.52
2023-05-18T06:23:13.111Z,32.10
2023-05-18T06:25:47.955Z,31.23
2023-05-18T06:28:22.401Z,30.00
2023-05-18T06:30:56.266Z,28.84
2023-05-18T06:33:31.422Z,27.64
2023-05-18T06:36:04.966Z,26.80
2023-05-18T06:38:38.608Z,26.37
2023-05-18T06:41:12.575Z,26.11
2023-05-18T06:43:46.422Z,26.00
2023-05-18T06:46:24.918Z,25.63
2023-05-18T06:48:58.620Z,25.24
2023-05-18T06:51:32.319Z,24.85
2023-05-18T06:54:05.926Z,24.44
2023-05-18T06:56:39.894Z,23.95
2023-05-18T06:59:13.976Z,23.41
2023-05-18T07:01:47.804Z,22.98
2023-05-18T07:04:21.676Z,22.58
2023-05-18T07:06:56.370Z,22.26
2023-05-18T07:09:30.313Z,21.96
2023-05-18T07:12:04.207Z,21.58
2023-05-18T07:14:37.904Z,21.37
2023-05-18T07:17:12.895Z,21.50
2023-05-18T07:19:46.515Z,21.89
2023-05-18T07:22:20.679Z,22.08
2023-05-18T07:24:54.808Z,21.99
2023-05-18T07:27:28.915Z,21.78
2023-05-18T07:30:04.470Z,21.61
2023-05-18T07:32:39.542Z,21.52
2023-05-18T07:35:13.289Z,21.63
2023-05-18T07:37:47.693Z,21.74
2023-05-18T07:40:22.417Z,21.76
2023-05-18T07:42:56.150Z,21.65
2023-05-18T07:45:30.805Z,21.54
2023-05-18T07:48:05.156Z,21.29
2023-05-18T07:50:40.005Z,20.88
2023-05-18T07:53:15.769Z,20.48
2023-05-18T07:55:50.621Z,20.26
2023-05-18T07:58:24.705Z,20.08
2023-05-18T08:00:59.230Z,20.00
2023-05-18T08:03:34.718Z,20.00
2023-05-18T08:06:08.887Z,19.96
2023-05-18T08:08:43.846Z,20.03
2023-05-18T08:11:17.689Z,20.17
2023-05-18T08:13:51.476Z,20.25
2023-05-18T08:16:25.451Z,20.31
2023-05-18T08:18:59.333Z,20.44
2023-05-18T08:21:33.657Z,20.60
2023-05-18T08:24:08.475Z,20.79
2023-05-18T08:26:42.712Z,20.98
2023-05-18T08:29:21.273Z,21.28
2023-05-18T08:31:58.584Z,21.54
2023-05-18T08:34:33.033Z,21.80
2023-05-18T08:37:07.054Z,22.09
2023-05-18T08:39:41.751Z,22.30
2023-05-18T08:42:23.394Z,22.46
2023-05-18T08:45:04.842Z,22.60
2023-05-18T08:47:40.562Z,22.66
2023-05-18T08:50:16.597Z,22.80
2023-05-18T08:52:51.549Z,23.12
2023-05-18T08:55:28.098Z,23.50
2023-05-18T08:58:02.955Z,23.74
2023-05-18T09:00:37.907Z,23.92
2023-05-18T09:03:12.051Z,24.02
2023-05-18T09:05:46.379Z,24.19
2023-05-18T09:08:21.090Z,24.33
2023-05-18T09:10:55.727Z,24.23
2023-05-18T09:13:29.651Z,24.09
2023-05-18T09:16:05.164Z,24.05
2023-05-18T09:18:39.216Z,24.11
2023-05-18T09:21:12.981Z,24.11
2023-05-18T09:23:47.526Z,24.11
2023-05-18T09:26:22.879Z,24.12
2023-05-18T09:28:57.718Z,24.17
2023-05-18T09:31:34.681Z,24.08
2023-05-18T09:34:08.796Z,23.95
2023-05-18T09:36:43.063Z,23.79
2023-05-18T09:39:16.893Z,23.72
2023-05-18T09:41:50.653Z,23.67
2023-05-18T09:44:34.485Z,23.75
2023-05-18T09:47:12.648Z,23.96
2023-05-18T09:49:48.138Z,24.12
2023-05-18T09:52:21.899Z,24.24
2023-05-18T09:55:05.234Z,24.11
2023-05-18T09:57:43.375Z,23.99
2023-05-18T10:00:20.274Z,23.94
2023-05-18T10:02:54.644Z,23.91
2023-05-18T10:05:32.555Z,23.92
2023-05-18T10:08:09.442Z,23.94
2023-05-18T10:10:45.445Z,23.86
2023-05-18T10:13:22.109Z,23.86
2023-05-18T10:15:59.300Z,23.91
2023-05-18T10:18:34.105Z,24.02
2023-05-18T10:21:12.930Z,24.22
2023-05-18T10:23:49.188Z,24.26
2023-05-18T10:26:21.811Z,24.31
2023-05-18T10:28:57.191Z,24.24
2023-05-18T10:31:31.864Z,24.18
2023-05-18T10:34:06.002Z,24.22
2023-05-18T10:36:40.466Z,24.26
2023-05-18T10:39:14.612Z,24.27
2023-05-18T10:41:49.415Z,24.27
2023-05-18T10:44:23.189Z,24.27
2023-05-18T10:46:57.428Z,24.29
2023-05-18T10:49:32.195Z,24.40
2023-05-18T10:52:07.219Z,24.43
2023-05-18T10:54:40.971Z,24.41
2023-05-18T10:57:16.312Z,24.31
2023-05-18T10:59:50.786Z,24.11
2023-05-18T11:02:27.349Z,23.93
2023-05-18T11:05:01.348Z,23.78
2023-05-18T11:07:35.832Z,23.54
2023-05-18T11:10:14.087Z,23.29
2023-05-18T11:12:48.473Z,23.04
2023-05-18T11:15:22.118Z,22.84
2023-05-18T11:18:17.914Z,22.57
2023-05-18T11:20:52.327Z,22.21
2023-05-18T11:23:28.756Z,21.95
2023-05-18T11:26:03.339Z,21.76
2023-05-18T11:28:49.493Z,21.58
2023-05-18T11:31:23.537Z,21.45
2023-05-18T11:33:57.302Z,21.33
2023-05-18T11:36:33.579Z,21.13
2023-05-18T11:39:09.414Z,20.95
2023-05-18T11:41:44.673Z,20.77
2023-05-18T11:44:22.273Z,20.60
2023-05-18T11:46:57.932Z,20.45
2023-05-18T11:49:32.566Z,20.38
2023-05-18T11:52:11.135Z,20.32
2023-05-18T11:54:51.139Z,20.25
2023-05-18T11:57:28.778Z,20.15
2023-05-18T12:00:08.323Z,20.00
2023-05-18T12:02:45.232Z,19.86
2023-05-18T12:05:19.968Z,19.79
2023-05-18T12:07:58.258Z,19.76
2023-05-18T12:10:32.590Z,19.75
2023-05-18T12:13:07.274Z,19.67
2023-05-18T12:15:43.026Z,19.48
2023-05-18T12:18:17.045Z,19.37
2023-05-18T12:20:53.043Z,19.26
2023-05-18T12:23:39.934Z,19.22
2023-05-18T12:26:14.933Z,19.16
2023-05-18T12:28:49.218Z,19.06
2023-05-18T12:31:23.046Z,19.02
2023-05-18T12:33:59.183Z,19.04
2023-05-18T12:36:31.522Z,19.07
2023-05-18T12:39:06.665Z,19.06
2023-05-18T12:41:40.621Z,19.10
2023-05-18T12:44:14.090Z,19.14
2023-05-18T12:46:48.697Z,19.23
2023-05-18T12:49:23.787Z,19.34
2023-05-18T12:51:59.985Z,19.36
2023-05-18T12:54:33.666Z,19.28
2023-05-18T12:57:10.565Z,19.16
2023-05-18T12:59:51.846Z,18.96
2023-05-18T13:02:38.510Z,18.74
2023-05-18T13:05:13.922Z,18.62
2023-05-18T13:07:48.183Z,18.61
2023-05-18T13:10:22.527Z,18.62
2023-05-18T13:13:04.143Z,18.67
2023-05-18T13:15:39.895Z,18.76
2023-05-18T13:18:14.572Z,18.95
2023-05-18T13:20:52.012Z,19.20
2023-05-18T13:23:26.978Z,19.50
2023-05-18T13:26:00.815Z,19.74
2023-05-18T13:28:34.462Z,19.98
2023-05-18T13:31:09.366Z,20.19
2023-05-18T13:33:44.262Z,20.37
2023-05-18T13:36:18.852Z,20.40
2023-05-18T13:38:54.658Z,20.47
2023-05-18T13:41:28.280Z,20.50
2023-05-18T13:44:02.087Z,20.45
2023-05-18T13:46:38.322Z,20.40
2023-05-18T13:49:13.286Z,20.37
2023-05-18T13:51:48.474Z,20.37
2023-05-18T13:54:22.360Z,20.37
2023-05-18T13:56:56.401Z,20.46
2023-05-18T13:59:30.846Z,20.59
2023-05-18T14:02:04.755Z,20.67
2023-05-18T14:04:40.337Z,20.64
2023-05-18T14:07:15.149Z,20.58
2023-05-18T14:09:48.696Z,20.53
2023-05-18T14:12:22.671Z,20.37
2023-05-18T14:14:57.272Z,20.23
2023-05-18T14:17:31.539Z,20.12
2023-05-18T14:20:06.829Z,20.00
2023-05-18T14:22:43.188Z,19.83
2023-05-18T14:25:18.807Z,19.71
2023-05-18T14:27:52.398Z,19.59
2023-05-18T14:30:26.904Z,19.53
2023-05-18T14:33:03.630Z,19.46
2023-05-18T14:35:37.474Z,19.43
2023-05-18T14:38:11.023Z,19.46
2023-05-18T14:40:44.650Z,19.49
2023-05-18T14:43:18.239Z,19.52
2023-05-18T14:46:07.469Z,19.57
2023-05-18T14:48:42.653Z,19.68
2023-05-18T14:51:16.732Z,19.71
2023-05-18T14:53:51.609Z,19.66
2023-05-18T14:56:25.112Z,19.55
2023-05-18T14:58:58.691Z,19.44
2023-05-18T15:01:32.526Z,19.35
2023-05-18T15:04:07.812Z,19.24
2023-05-18T15:06:41.918Z,19.19
2023-05-18T15:09:16.573Z,19.23
2023-05-18T15:11:51.273Z,19.30
2023-05-18T15:14:25.060Z,19.36
2023-05-18T15:16:59.227Z,19.38
2023-05-18T15:19:34.548Z,19.38
2023-05-18T15:22:08.609Z,19.34
2023-05-18T15:24:42.688Z,19.22
2023-05-18T15:27:18.054Z,19.11
2023-05-18T15:29:51.932Z,19.03
2023-05-18T15:32:27.711Z,18.95
2023-05-18T15:35:04.488Z,18.89
2023-05-18T15:37:38.608Z,18.82
2023-05-18T15:40:14.660Z,18.75
2023-05-18T15:42:52.174Z,18.63
2023-05-18T15:45:26.021Z,18.54
2023-05-18T15:48:01.332Z,18.45
2023-05-18T15:50:36.853Z,18.24
2023-05-18T15:53:11.305Z,18.01
2023-05-18T15:55:44.949Z,17.77
2023-05-18T15:58:18.618Z,17.57
2023-05-18T16:00:52.268Z,17.43
2023-05-18T16:03:26.222Z,17.32
2023-05-18T16:05:59.934Z,17.23
2023-05-18T16:08:33.524Z,17.13
2023-05-18T16:11:07.525Z,17.02
2023-05-18T16:13:40.992Z,16.94
2023-05-18T16:16:14.782Z,16.88
2023-05-18T16:18:48.283Z,16.82
2023-05-18T16:21:22.514Z,16.80
2023-05-18T16:23:56.798Z,16.82
2023-05-18T16:26:30.512Z,16.85
2023-05-18T16:29:04.938Z,16.88
2023-05-18T16:31:38.853Z,16.92
2023-05-18T16:34:12.464Z,16.94
2023-05-18T16:36:48.850Z,16.97
2023-05-18T16:39:22.539Z,17.01
2023-05-18T16:41:56.601Z,17.05
2023-05-18T16:44:30.301Z,17.05
2023-05-18T16:47:06.454Z,17.06
2023-05-18T16:49:40.079Z,17.04
2023-05-18T16:52:16.197Z,17.02
2023-05-18T16:54:49.813Z,17.02
2023-05-18T16:57:26.614Z,17.01
2023-05-18T17:00:01.366Z,17.00
2023-05-18T17:02:38.387Z,16.99
2023-05-18T17:05:15.443Z,16.97
2023-05-18T17:07:49.925Z,16.94
2023-05-18T17:10:24.710Z,16.89
2023-05-18T17:13:00.293Z,16.89
2023-05-18T17:15:37.139Z,16.89
2023-05-18T17:18:13.156Z,16.83
2023-05-18T17:20:51.543Z,16.74
2023-05-18T17:23:25.275Z,16.69
2023-05-18T17:26:06.042Z,16.70
2023-05-18T17:28:41.715Z,16.73
2023-05-18T17:31:18.528Z,16.75
2023-05-18T17:33:52.378Z,16.78
2023-05-18T17:36:26.200Z,16.82
2023-05-18T17:39:01.734Z,16.85
2023-05-18T17:41:36.526Z,16.88
2023-05-18T17:44:14.374Z,16.91
2023-05-18T17:46:51.498Z,16.90
2023-05-18T17:49:28.068Z,16.88
2023-05-18T17:52:01.985Z,16.87
2023-05-18T17:54:38.893Z,16.85
2023-05-18T17:57:13.980Z,16.83
2023-05-18T17:59:48.330Z,16.79
2023-05-18T18:02:24.105Z,16.76
2023-05-18T18:05:01.870Z,16.74
2023-05-18T18:07:37.417Z,16.71
2023-05-18T18:10:13.982Z,16.68
2023-05-18T18:12:47.586Z,16.67
2023-05-18T18:15:22.231Z,16.64
2023-05-18T18:17:56.431Z,16.60
2023-05-18T18:20:32.056Z,16.56
2023-05-18T18:23:06.039Z,16.54
2023-05-18T18:25:39.678Z,16.53
2023-05-18T18:28:15.901Z,16.53
2023-05-18T18:30:58.779Z,16.54
2023-05-18T18:33:33.111Z,16.55
2023-05-18T18:36:08.086Z,16.55
2023-05-18T18:38:43.681Z,16.55
2023-05-18T18:41:18.245Z,16.55
2023-05-18T18:43:54.453Z,16.54
2023-05-18T18:46:28.104Z,16.53
2023-05-18T18:49:04.379Z,16.50
2023-05-18T18:51:38.630Z,16.47
2023-05-18T18:54:12.835Z,16.44
2023-05-18T18:56:50.673Z,16.40
2023-05-18T18:59:24.177Z,16.35
2023-05-18T19:01:57.841Z,16.31
2023-05-18T19:04:32.111Z,16.26
2023-05-18T19:07:06.812Z,16.22
2023-05-18T19:09:42.636Z,16.17
2023-05-18T19:12:26.243Z,16.13
2023-05-18T19:15:03.946Z,16.07
2023-05-18T19:17:41.984Z,16.02
2023-05-18T19:20:18.501Z,15.99
2023-05-18T19:22:56.631Z,15.97
2023-05-18T19:25:32.426Z,15.97
2023-05-18T19:28:06.815Z,15.97
2023-05-18T19:30:40.716Z,15.99
2023-05-18T19:33:14.561Z,16.00
2023-05-18T19:35:48.127Z,16.00
2023-05-18T19:38:21.712Z,15.99
2023-05-18T19:40:59.558Z,15.99
2023-05-18T19:43:36.764Z,15.98
2023-05-18T19:46:10.890Z,15.96
2023-05-18T19:48:46.632Z,15.95
2023-05-18T19:51:26.709Z,15.93
2023-05-18T19:54:01.115Z,15.91
2023-05-18T19:56:38.160Z,15.87
2023-05-18T19:59:12.996Z,15.84
2023-05-18T20:01:49.857Z,15.80
2023-05-18T20:04:28.796Z,15.76
2023-05-18T20:07:05.407Z,15.71
2023-05-18T20:09:40.696Z,15.68
2023-05-18T20:12:14.852Z,15.65
2023-05-18T20:14:48.978Z,15.62
2023-05-18T20:17:26.718Z,15.62
2023-05-18T20:20:02.996Z,15.62
2023-05-18T20:22:36.697Z,15.65
2023-05-18T20:25:12.472Z,15.67
2023-05-18T20:27:46.448Z,15.70
2023-05-18T20:30:21.061Z,15.73
2023-05-18T20:32:54.925Z,15.76
2023-05-18T20:35:29.019Z,15.77
2023-05-18T20:38:03.165Z,15.77
2023-05-18T20:40:38.398Z,15.77
2023-05-18T20:43:18.298Z,15.75
2023-05-18T20:45:51.834Z,15.69
2023-05-18T20:48:29.384Z,15.66
2023-05-18T20:51:03.092Z,15.64
2023-05-18T20:53:37.232Z,15.63
2023-05-18T20:56:15.640Z,15.63
2023-05-18T20:58:50.531Z,15.63
2023-05-18T21:01:29.065Z,15.64
2023-05-18T21:04:07.199Z,15.64
2023-05-18T21:06:44.694Z,15.63
2023-05-18T21:09:18.800Z,15.61
2023-05-18T21:11:53.980Z,15.61
2023-05-18T21:14:27.856Z,15.60
2023-05-18T21:17:01.730Z,15.61
2023-05-18T21:19:37.009Z,15.62
2023-05-18T21:22:11.991Z,15.63
2023-05-18T21:24:45.405Z,15.65
2023-05-18T21:27:20.573Z,15.66
2023-05-18T21:29:54.456Z,15.65
2023-05-18T21:32:28.435Z,15.59
2023-05-18T21:35:04.406Z,15.57
2023-05-18T21:37:38.350Z,15.57
2023-05-18T21:40:14.214Z,15.55
2023-05-18T21:42:47.724Z,15.53
2023-05-18T21:45:23.008Z,15.50
2023-05-18T21:47:57.128Z,15.50
2023-05-18T21:50:35.335Z,15.52
2023-05-18T21:53:09.252Z,15.53
2023-05-18T21:55:42.852Z,15.57
2023-05-18T21:58:19.234Z,15.57
2023-05-18T22:00:53.025Z,15.61
2023-05-18T22:03:26.498Z,15.63
2023-05-18T22:06:00.551Z,15.63
2023-05-18T22:08:34.782Z,15.63
2023-05-18T22:11:08.962Z,15.63
2023-05-18T22:13:42.757Z,15.64
2023-05-18T22:16:16.774Z,15.63
2023-05-18T22:18:50.319Z,15.62
2023-05-18T22:21:24.174Z,15.62
2023-05-18T22:23:58.823Z,15.59
2023-05-18T22:26:32.466Z,15.57
2023-05-18T22:29:06.205Z,15.53
2023-05-18T22:31:40.562Z,15.52
2023-05-18T22:34:14.240Z,15.53
2023-05-18T22:36:50.376Z,15.51
2023-05-18T22:39:23.756Z,15.49
2023-05-18T22:41:57.234Z,15.46
2023-05-18T22:44:30.742Z,15.46
2023-05-18T22:47:04.387Z,15.44
2023-05-18T22:49:37.797Z,15.41
2023-05-18T22:52:11.750Z,15.39
2023-05-18T22:54:45.357Z,15.34
2023-05-18T22:57:19.194Z,15.28
2023-05-18T22:59:52.850Z,15.22
2023-05-18T23:02:27.584Z,15.17
2023-05-18T23:05:01.611Z,15.15
2023-05-18T23:07:38.311Z,15.13
2023-05-18T23:10:14.602Z,15.10
2023-05-18T23:12:48.709Z,15.05
2023-05-18T23:15:23.368Z,15.02
2023-05-18T23:17:57.364Z,14.98
2023-05-18T23:20:34.887Z,14.95
2023-05-18T23:23:09.226Z,14.91
2023-05-18T23:25:42.813Z,14.86
2023-05-18T23:28:16.243Z,14.77
2023-05-18T23:30:50.222Z,14.71
2023-05-18T23:33:26.039Z,14.67
2023-05-18T23:36:04.422Z,14.65
2023-05-18T23:38:41.934Z,14.66
2023-05-18T23:41:16.411Z,14.69
2023-05-18T23:43:51.244Z,14.69
2023-05-18T23:46:28.041Z,14.71
2023-05-18T23:49:03.354Z,14.70
2023-05-18T23:51:37.495Z,14.71
2023-05-18T23:54:13.569Z,14.74
2023-05-18T23:56:48.598Z,14.76
2023-05-18T23:59:22.735Z,14.76
